Time;durP1;ratioP1;P1;durP2;ratioP2;P2;SDS_P1;SDS_P2;PMS_P1;PMS_P2;Temp;Humidity;BMP_temperature;BMP_pressure;BME280_temperature;BME280_humidity;BME280_pressure;Samples;Min_cycle;Max_cycle;Signal;HPM_P1;HPM_P2
2022/12/06 00:01:16;;;;;;;13.02;9.75;;;;;;;6.71;85.82;101788.94;3568057;40;20052;-63
2022/12/06 00:03:45;;;;;;;12.73;10.57;;;;;;;6.72;86.14;101798.72;3576562;40;20052;-64
2022/12/06 00:06:20;;;;;;;10.90;9.52;;;;;;;6.71;86.17;101796.97;3577022;40;20053;-64
2022/12/06 00:08:47;;;;;;;14.35;10.13;;;;;;;6.71;85.25;101794.28;3578207;40;20044;-64
2022/12/06 00:11:27;;;;;;;13.30;10.25;;;;;;;6.69;86.18;101796.16;3577897;40;20051;-65
2022/12/06 00:13:57;;;;;;;13.10;9.80;;;;;;;6.55;85.72;101763.63;3579007;40;20064;-64
2022/12/06 00:16:24;;;;;;;11.82;8.95;;;;;;;6.68;85.47;101791.72;3583191;40;20072;-65
2022/12/06 00:18:50;;;;;;;11.68;9.10;;;;;;;6.44;85.49;101760.41;3575731;40;20048;-65
2022/12/06 00:21:27;;;;;;;11.77;9.23;;;;;;;6.69;85.16;101796.16;3578612;40;20103;-65
2022/12/06 00:24:00;;;;;;;12.68;9.02;;;;;;;6.69;85.42;101795.25;3576453;40;20064;-66
2022/12/06 00:26:28;;;;;;;11.43;9.20;;;;;;;6.43;85.62;101750.63;3577176;40;20380;-65
2022/12/06 00:28:58;;;;;;;10.10;8.52;;;;;;;6.72;85.83;101796.06;3580903;40;20064;-65
2022/12/06 00:31:27;;;;;;;11.07;8.73;;;;;;;6.70;85.22;101792.53;3579374;40;20064;-65
2022/12/06 00:33:53;;;;;;;11.77;8.80;;;;;;;6.72;84.90;101790.72;3582568;40;20051;-64
2022/12/06 00:36:23;;;;;;;9.57;8.05;;;;;;;6.70;85.17;101787.19;3576791;40;20068;-64
2022/12/06 00:38:50;;;;;;;11.93;8.73;;;;;;;6.71;85.60;101790.75;3578438;40;20144;-65
2022/12/06 00:41:20;;;;;;;10.38;8.98;;;;;;;6.73;85.29;101789.78;3576897;40;20387;-64
2022/12/06 00:43:47;;;;;;;11.23;8.48;;;;;;;6.53;85.07;101751.22;3577835;40;20056;-64
2022/12/06 00:46:20;;;;;;;10.40;8.82;;;;;;;6.63;84.59;101766.94;3577674;40;20337;-64
2022/12/06 00:48:47;;;;;;;10.70;8.95;;;;;;;6.77;84.65;101787.00;3579320;40;20400;-64
2022/12/06 00:51:16;;;;;;;10.65;8.60;;;;;;;6.68;85.21;101777.47;3579194;40;20100;-64
2022/12/06 00:53:43;;;;;;;9.63;8.10;;;;;;;6.78;85.18;101788.75;3580554;40;20057;-64
2022/12/06 00:56:10;;;;;;;10.90;8.68;;;;;;;6.78;84.89;101786.09;3575806;40;20464;-64
2022/12/06 00:58:36;;;;;;;10.52;8.80;;;;;;;6.76;84.20;101795.97;3580480;40;20134;-64
2022/12/06 01:01:24;;;;;;;10.15;8.40;;;;;;;6.77;84.25;101797.72;3579757;40;20065;-64
2022/12/06 01:03:56;;;;;;;10.50;8.60;;;;;;;6.77;84.78;101795.03;3579347;40;20069;-64
2022/12/06 01:06:29;;;;;;;9.63;8.23;;;;;;;6.78;84.96;101794.09;3574183;40;20161;-64
2022/12/06 01:08:58;;;;;;;9.15;7.70;;;;;;;6.80;85.15;101792.28;3576232;40;20061;-63
2022/12/06 01:11:25;;;;;;;9.50;7.80;;;;;;;6.61;84.59;101755.41;3576671;40;20076;-63
2022/12/06 01:13:52;;;;;;;10.73;8.23;;;;;;;6.79;84.65;101790.50;3577426;40;20386;-64
2022/12/06 01:16:22;;;;;;;11.20;8.25;;;;;;;6.78;84.38;101789.63;3578042;40;20077;-64
2022/12/06 01:18:53;;;;;;;9.30;8.32;;;;;;;6.78;84.86;101794.09;3581547;40;20057;-64
2022/12/06 01:21:21;;;;;;;11.00;8.10;;;;;;;6.78;85.09;101796.78;3574469;40;20071;-63
2022/12/06 01:23:47;;;;;;;8.77;7.88;;;;;;;6.77;84.52;101803.06;3575388;40;20084;-64
2022/12/06 01:26:34;;;;;;;11.00;8.30;;;;;;;6.77;84.61;101792.38;3577752;40;20044;-64
2022/12/06 01:29:02;;;;;;;10.95;7.95;;;;;;;6.76;84.88;101798.63;3577641;40;20060;-63
2022/12/06 01:31:29;;;;;;;9.90;8.25;;;;;;;6.73;84.96;101794.25;3577407;40;20295;-64
2022/12/06 01:33:55;;;;;;;9.48;8.07;;;;;;;6.73;85.32;101792.47;3583867;40;20085;-64
2022/12/06 01:36:24;;;;;;;10.20;8.18;;;;;;;6.69;85.08;101796.16;3575530;40;21847;-64
2022/12/06 01:38:53;;;;;;;9.15;7.68;;;;;;;6.74;85.76;101801.34;3576669;40;20103;-64
2022/12/06 01:41:22;;;;;;;8.52;7.40;;;;;;;6.75;85.65;101797.75;3575353;40;20068;-65
2022/12/06 01:43:48;;;;;;;8.40;7.45;;;;;;;6.76;85.92;101802.19;3575432;40;20129;-64
2022/12/06 01:46:30;;;;;;;8.38;6.85;;;;;;;6.77;85.71;101803.91;3578442;40;20129;-64
2022/12/06 01:49:18;;;;;;;8.68;7.47;;;;;;;6.77;85.61;101793.22;3580874;40;20075;-64
2022/12/06 01:52:00;;;;;;;7.90;7.10;;;;;;;6.53;85.77;101752.09;3579451;40;20388;-64
2022/12/06 01:54:26;;;;;;;10.77;8.25;;;;;;;6.77;85.38;101787.88;3573528;40;20080;-65
2022/12/06 01:56:55;;;;;;;11.63;8.07;;;;;;;6.74;85.41;101788.84;3576011;40;20070;-66
2022/12/06 01:59:24;;;;;;;9.48;7.43;;;;;;;6.46;85.65;101737.19;3576712;40;20621;-65
2022/12/06 02:01:50;;;;;;;11.30;7.88;;;;;;;6.77;85.56;101790.56;3579777;40;20059;-65
2022/12/06 02:04:18;;;;;;;10.48;7.97;;;;;;;6.76;85.51;101787.94;3576376;40;20169;-65
2022/12/06 02:06:45;;;;;;;12.40;8.55;;;;;;;6.73;85.70;101786.25;3579346;40;20105;-65
2022/12/06 02:09:14;;;;;;;11.45;8.32;;;;;;;6.76;85.93;101785.28;3574100;40;20052;-66
2022/12/06 02:11:40;;;;;;;9.30;8.10;;;;;;;6.74;85.36;101788.84;3576346;40;20049;-66
2022/12/06 02:14:14;;;;;;;10.93;8.32;;;;;;;6.74;85.63;101783.50;3576145;40;20497;-65
2022/12/06 02:16:58;;;;;;;;;;;;;;;6.72;85.58;101787.13;3577832;40;20062;-65
2022/12/06 02:19:44;;;;;;;8.82;6.93;;;;;;;6.69;85.22;101784.56;3579092;40;19939;-65
2022/12/06 02:22:23;;;;;;;11.48;7.93;;;;;;;6.69;85.75;101784.56;3574468;40;20048;-66
2022/12/06 02:25:34;;;;;;;11.25;7.72;;;;;;;6.70;85.09;101786.34;3581132;40;20391;-66
2022/12/06 02:28:25;;;;;;;10.32;7.47;;;;;;;6.70;85.61;101786.34;3574393;40;20299;-65
2022/12/06 02:30:53;;;;;;;9.05;7.20;;;;;;;6.71;85.34;101780.06;3572784;40;20067;-65
2022/12/06 02:33:34;;;;;;;10.02;7.40;;;;;;;6.70;85.58;101781.84;3576350;40;20069;-64
2022/12/06 02:36:41;;;;;;;9.82;6.80;;;;;;;6.70;84.82;101779.19;3579458;40;20082;-65
2022/12/06 02:39:39;;;;;;;10.48;7.22;;;;;;;6.52;84.72;101750.34;3578925;40;20112;-65
2022/12/06 02:42:15;;;;;;;9.85;6.93;;;;;;;6.71;84.86;101774.72;3573945;40;20152;-65
2022/12/06 02:44:57;;;;;;;8.05;6.80;;;;;;;6.70;85.22;101775.66;3576287;40;20090;-64
2022/12/06 02:47:33;;;;;;;9.55;7.43;;;;;;;6.36;84.83;101714.34;3576725;40;20056;-64
2022/12/06 02:50:02;;;;;;;7.78;6.75;;;;;;;6.70;84.85;101771.16;3577403;40;20048;-64
2022/12/06 02:52:31;;;;;;;7.78;6.30;;;;;;;6.69;84.39;101774.78;3579062;40;20133;-64
2022/12/06 02:55:00;;;;;;;9.77;6.72;;;;;;;6.69;84.56;101769.44;3576419;40;20088;-64
2022/12/06 02:57:41;;;;;;;7.93;6.22;;;;;;;6.70;84.23;101772.97;3575608;40;20059;-63
2022/12/06 03:00:37;;;;;;;8.35;6.25;;;;;;;6.69;84.04;101777.44;3579098;40;20382;-64
2022/12/06 03:03:30;;;;;;;8.52;6.80;;;;;;;6.71;84.00;101766.69;3575807;40;20672;-64
2022/12/06 03:06:01;;;;;;;6.60;5.88;;;;;;;6.72;83.93;101768.44;3575751;40;20055;-63
2022/12/06 03:08:53;;;;;;;7.30;6.53;;;;;;;6.70;83.58;101763.16;3577057;40;20052;-64
2022/12/06 03:11:19;;;;;;;8.73;6.38;;;;;;;6.71;84.65;101764.03;3577676;40;20420;-64
2022/12/06 03:13:59;;;;;;;8.90;6.20;;;;;;;6.72;84.45;101768.44;3578574;40;20051;-64
2022/12/06 03:16:48;;;;;;;9.93;6.35;;;;;;;6.70;84.14;101765.81;3579156;40;20064;-64
2022/12/06 03:19:28;;;;;;;9.68;6.78;;;;;;;6.70;83.87;101775.66;3576893;40;20318;-63
2022/12/06 03:22:05;;;;;;;9.95;6.57;;;;;;;6.70;84.50;101772.97;3565769;40;20118;-64
2022/12/06 03:24:38;;;;;;;10.25;7.00;;;;;;;6.68;83.73;101772.13;3579275;40;20381;-64
2022/12/06 03:27:11;;;;;;;9.18;7.18;;;;;;;6.70;84.23;101781.00;3574560;40;20092;-64
2022/12/06 03:29:45;;;;;;;7.65;6.85;;;;;;;6.68;83.69;101782.81;3574985;40;20414;-64
2022/12/06 03:32:18;;;;;;;9.02;6.85;;;;;;;6.68;84.17;101775.69;3577062;40;20048;-63
2022/12/06 03:34:51;;;;;;;11.82;7.25;;;;;;;6.70;84.54;101786.34;3576474;40;20072;-64
2022/12/06 03:37:24;;;;;;;9.00;6.68;;;;;;;6.67;84.40;101775.75;3577528;40;20067;-64
2022/12/06 03:40:16;;;;;;;9.00;6.18;;;;;;;6.69;84.17;101779.22;3571925;40;20288;-64
2022/12/06 03:42:42;;;;;;;10.90;7.55;;;;;;;6.69;84.64;101774.78;3574874;40;20092;-64
2022/12/06 03:45:11;;;;;;;9.50;7.18;;;;;;;6.56;84.37;101762.69;3574393;40;20052;-64
2022/12/06 03:47:51;;;;;;;9.27;6.65;;;;;;;6.69;85.00;101774.78;3576919;40;20052;-64
2022/12/06 03:50:46;;;;;;;10.27;7.30;;;;;;;6.69;84.80;101774.78;3578299;40;20098;-64
2022/12/06 03:53:11;;;;;;;11.60;7.70;;;;;;;6.71;84.42;101772.91;3578922;40;20060;-64
2022/12/06 03:55:37;;;;;;;11.05;8.25;;;;;;;6.72;84.06;101764.00;3576087;40;20056;-63
2022/12/06 03:58:03;;;;;;;11.82;8.27;;;;;;;6.65;84.53;101762.41;3574634;40;20054;-64
2022/12/06 04:00:28;;;;;;;10.35;8.15;;;;;;;6.68;84.28;101767.66;3575386;40;20075;-64
2022/12/06 04:02:54;;;;;;;10.25;7.55;;;;;;;6.69;84.64;101772.09;3577282;40;20060;-64
2022/12/06 04:05:20;;;;;;;12.85;7.95;;;;;;;6.69;84.54;101776.53;3578223;40;20338;-64
2022/12/06 04:07:45;;;;;;;11.20;8.23;;;;;;;6.70;85.29;101776.50;3577702;40;20056;-64
2022/12/06 04:10:11;;;;;;;13.82;8.85;;;;;;;6.70;85.08;101765.81;3575542;40;20067;-64
2022/12/06 04:15:22;;;;;;;11.95;8.00;;;;;;;6.67;85.16;101765.91;3575535;40;20125;-64
2022/12/06 04:23:19;;;;;;;12.38;8.52;;;;;;;6.63;85.19;101769.63;3578120;40;20149;-64
2022/12/06 04:25:45;;;;;;;13.95;8.48;;;;;;;6.64;84.63;101775.81;3574512;40;20295;-64
2022/12/06 04:39:08;;;;;;;;;;;;;;;6.65;85.21;101774.91;3578927;40;20051;-64
2022/12/06 04:44:17;;;;;;;;;;;;;;;6.61;85.32;101775.91;3576718;40;20056;-65
2022/12/06 04:46:43;;;;;;;14.48;8.98;;;;;;;6.62;85.52;101777.66;3577089;40;19948;-63
2022/12/06 04:49:09;;;;;;;15.10;9.23;;;;;;;6.62;84.77;101775.00;3580482;40;20048;-63
2022/12/06 04:51:35;;;;;;;14.52;9.48;;;;;;;6.63;85.71;101774.06;3581932;40;20060;-64
2022/12/06 04:54:00;;;;;;;13.50;8.93;;;;;;;6.63;85.50;101774.97;3581710;40;20056;-63
2022/12/06 04:56:26;;;;;;;13.95;9.73;;;;;;;6.56;85.78;101762.69;3577961;40;20138;-63
2022/12/06 04:58:52;;;;;;;16.85;9.82;;;;;;;6.65;85.16;101782.91;3577654;40;20609;-64
2022/12/06 05:01:17;;;;;;;15.93;9.18;;;;;;;6.64;85.68;101776.69;3578727;40;20151;-63
2022/12/06 05:03:43;;;;;;;16.65;9.38;;;;;;;6.53;85.00;101753.88;3577909;40;20326;-64
2022/12/06 05:06:09;;;;;;;16.05;9.30;;;;;;;6.62;85.17;101769.66;3577839;40;20096;-64
2022/12/06 05:08:35;;;;;;;15.48;8.85;;;;;;;6.62;85.08;101773.19;3582180;40;20062;-64
2022/12/06 05:11:00;;;;;;;15.68;9.07;;;;;;;6.59;85.43;101765.25;3580756;40;20056;-64
2022/12/06 05:13:26;;;;;;;11.48;7.95;;;;;;;6.63;85.31;101774.06;3576155;40;20067;-64
2022/12/06 05:16:03;;;;;;;15.13;8.95;;;;;;;6.62;85.05;101772.31;3577907;40;20057;-64
2022/12/06 05:18:29;;;;;;;16.08;8.63;;;;;;;6.61;85.46;101760.75;3581027;40;20056;-64
2022/12/06 05:21:09;;;;;;;18.73;9.20;;;;;;;6.62;85.51;101766.97;3579487;40;20048;-64
2022/12/06 05:23:35;;;;;;;15.25;8.20;;;;;;;6.49;85.35;101739.75;3575832;40;20068;-64
2022/12/06 05:26:06;;;;;;;14.50;9.07;;;;;;;6.63;85.29;101766.94;3577974;40;20057;-62
2022/12/06 05:28:33;;;;;;;13.30;8.40;;;;;;;6.63;85.40;101771.38;3579111;40;20084;-62
2022/12/06 05:30:59;;;;;;;15.48;8.98;;;;;;;6.47;84.98;101738.91;3577197;40;20126;-62
2022/12/06 05:33:27;;;;;;;16.23;8.90;;;;;;;6.39;84.95;101727.59;3579440;40;20115;-62
2022/12/06 05:35:52;;;;;;;15.02;8.60;;;;;;;6.60;84.86;101760.81;3578613;40;20064;-62
2022/12/06 05:38:20;;;;;;;14.45;9.07;;;;;;;6.59;84.58;101764.41;3578775;40;20055;-62
2022/12/06 05:40:46;;;;;;;11.10;7.97;;;;;;;6.59;85.00;101767.94;3580616;40;20071;-62
2022/12/06 05:43:14;;;;;;;14.45;8.45;;;;;;;6.53;85.36;101751.22;3581286;40;20074;-62
2022/12/06 05:45:41;;;;;;;14.52;8.63;;;;;;;6.61;84.76;101759.91;3575720;40;20062;-62
2022/12/06 05:48:07;;;;;;;15.52;8.48;;;;;;;6.42;84.90;101738.19;3575550;40;20379;-64
2022/12/06 05:50:34;;;;;;;16.98;8.63;;;;;;;6.58;84.82;101760.84;3577024;40;20095;-62
2022/12/06 05:53:00;;;;;;;16.08;8.35;;;;;;;6.61;85.00;101760.75;3577807;40;20045;-63
2022/12/06 05:55:27;;;;;;;15.10;8.32;;;;;;;6.59;84.99;101767.06;3579263;40;20052;-62
2022/12/06 05:57:52;;;;;;;15.52;7.93;;;;;;;6.56;84.75;101762.69;3578030;40;20703;-62
2022/12/06 06:00:20;;;;;;;13.20;8.02;;;;;;;6.55;85.17;101763.63;3576787;40;20048;-62
2022/12/06 06:02:46;;;;;;;12.63;7.47;;;;;;;6.56;85.16;101768.03;3573573;40;20057;-62
2022/12/06 06:05:13;;;;;;;15.95;7.95;;;;;;;6.55;84.64;101765.41;3579625;40;20088;-62
2022/12/06 06:07:39;;;;;;;14.95;7.57;;;;;;;6.56;84.83;101768.03;3576625;40;20064;-63
2022/12/06 06:10:06;;;;;;;12.30;7.53;;;;;;;6.43;84.82;101745.28;3578905;40;20425;-62
2022/12/06 06:12:32;;;;;;;11.25;7.57;;;;;;;6.57;84.83;101771.59;3577630;40;20060;-63
2022/12/06 06:14:57;;;;;;;11.30;7.55;;;;;;;6.57;84.33;101772.47;3577623;40;20100;-62
2022/12/06 06:17:23;;;;;;;17.13;7.57;;;;;;;6.58;84.76;101766.19;3577305;40;20419;-61
2022/12/06 06:19:50;;;;;;;13.77;7.07;;;;;;;6.47;84.23;101749.59;3575367;40;20092;-63
2022/12/06 06:22:17;;;;;;;11.63;6.78;;;;;;;6.55;83.99;101770.75;3577165;40;20068;-63
2022/12/06 06:24:43;;;;;;;12.68;7.25;;;;;;;6.40;84.67;101745.38;3577004;40;20166;-62
2022/12/06 06:27:09;;;;;;;12.30;7.30;;;;;;;6.54;84.77;101764.56;3577011;40;20145;-62
2022/12/06 06:29:35;;;;;;;11.55;7.30;;;;;;;6.53;84.75;101770.78;3576336;40;20380;-63
2022/12/06 06:32:00;;;;;;;11.10;7.05;;;;;;;6.54;84.36;101769.03;3574661;40;20060;-63
2022/12/06 06:34:26;;;;;;;13.07;7.30;;;;;;;6.50;84.02;101766.44;3574540;40;20087;-62
2022/12/06 06:36:52;;;;;;;17.52;7.57;;;;;;;6.50;84.05;101770.88;3574597;40;20048;-63
2022/12/06 06:39:17;;;;;;;13.70;7.47;;;;;;;6.46;84.36;101762.09;3577577;40;20071;-63
2022/12/06 06:41:44;;;;;;;14.07;7.63;;;;;;;6.34;84.56;101745.56;3575689;40;20056;-62
2022/12/06 06:44:11;;;;;;;17.05;8.43;;;;;;;6.49;84.42;101766.47;3576890;40;20091;-62
2022/12/06 06:46:36;;;;;;;12.73;7.50;;;;;;;6.47;84.75;101769.19;3576694;40;20091;-63
2022/12/06 06:49:03;;;;;;;16.05;7.43;;;;;;;6.42;83.99;101771.13;3578203;40;20060;-63
2022/12/06 06:51:31;;;;;;;11.68;7.90;;;;;;;6.43;84.72;101763.97;3576878;40;20060;-62
2022/12/06 06:53:57;;;;;;;12.27;7.63;;;;;;;6.33;83.97;101754.50;3577580;40;20071;-63
2022/12/06 06:56:24;;;;;;;13.27;7.30;;;;;;;6.21;84.10;101735.22;3576034;40;20060;-61
2022/12/06 06:58:50;;;;;;;12.95;7.80;;;;;;;6.33;84.33;101758.03;3577281;40;20122;-62
2022/12/06 07:01:22;;;;;;;17.40;8.18;;;;;;;6.23;84.50;101746.75;3578123;40;20060;-62
2022/12/06 07:03:50;;;;;;;16.48;8.00;;;;;;;6.03;84.39;101719.78;3574635;40;20407;-62
2022/12/06 07:06:17;;;;;;;14.93;8.00;;;;;;;6.23;84.06;101760.09;3578248;40;20446;-62
2022/12/06 07:08:43;;;;;;;12.63;7.93;;;;;;;6.17;83.73;101765.59;3575873;40;20287;-62
2022/12/06 07:11:10;;;;;;;11.35;7.85;;;;;;;6.10;84.18;101757.84;3568574;40;20387;-62
2022/12/06 07:13:38;;;;;;;18.45;7.65;;;;;;;6.12;84.04;101767.56;3574731;40;20052;-62
2022/12/06 07:16:07;;;;;;;15.20;7.85;;;;;;;6.11;83.79;101765.78;3574388;40;20052;-63
2022/12/06 07:18:33;;;;;;;15.43;8.00;;;;;;;5.94;84.02;101746.72;3576332;40;20044;-62
2022/12/06 07:21:06;;;;;;;14.68;7.60;;;;;;;5.99;84.36;101761.69;3575277;40;20048;-62
2022/12/06 07:23:34;;;;;;;9.02;7.22;;;;;;;5.99;84.07;101761.69;3574676;40;20426;-63
2022/12/06 07:26:10;;;;;;;10.77;6.97;;;;;;;5.94;84.35;101757.38;3576581;40;20068;-61
2022/12/06 07:28:39;;;;;;;14.70;7.85;;;;;;;5.84;84.53;101751.41;3576113;40;20149;-62
2022/12/06 07:31:15;;;;;;;12.85;7.20;;;;;;;5.86;83.96;101765.56;3572551;40;20059;-62
2022/12/06 07:33:42;;;;;;;12.90;7.95;;;;;;;5.84;84.18;101774.53;3574992;40;20147;-62
2022/12/06 07:36:10;;;;;;;12.50;8.07;;;;;;;5.81;84.75;101768.34;3576502;40;20072;-62
2022/12/06 07:38:36;;;;;;;14.50;8.25;;;;;;;5.80;85.30;101777.28;3574163;40;20387;-63
2022/12/06 07:46:45;;;;;;;14.38;7.47;;;;;;;5.83;85.65;101773.63;3575359;40;20484;-62
2022/12/06 07:49:10;;;;;;;16.15;8.68;;;;;;;5.88;85.54;101768.19;3576922;40;20165;-63
2022/12/06 07:51:36;;;;;;;12.07;7.70;;;;;;;5.88;85.15;101774.41;3563027;40;20056;-63
2022/12/06 07:54:03;;;;;;;12.32;7.32;;;;;;;5.90;84.61;101777.00;3573621;40;20077;-63
2022/12/06 07:56:28;;;;;;;12.18;7.50;;;;;;;5.92;85.53;101785.84;3577446;40;20060;-63
2022/12/06 07:58:54;;;;;;;13.18;7.25;;;;;;;5.92;85.36;101785.84;3580158;40;20126;-63
2022/12/06 08:01:20;;;;;;;12.88;7.40;;;;;;;5.93;84.87;101791.22;3579213;40;20048;-62
2022/12/06 08:03:45;;;;;;;9.52;6.80;;;;;;;5.96;85.02;101791.13;3573893;40;20410;-63
2022/12/06 08:06:11;;;;;;;12.13;6.30;;;;;;;5.99;84.50;101790.13;3575666;40;20523;-63
2022/12/06 08:08:36;;;;;;;9.70;6.65;;;;;;;5.95;84.95;101780.47;3576302;40;20354;-63
2022/12/06 08:11:06;;;;;;;12.45;6.80;;;;;;;6.00;84.66;101792.78;3573672;40;20072;-63
2022/12/06 08:13:35;;;;;;;12.30;7.15;;;;;;;6.01;84.72;101790.97;3578312;40;20044;-63
2022/12/06 08:16:11;;;;;;;11.05;6.82;;;;;;;6.04;84.84;101790.91;3580828;40;20052;-62
2022/12/06 08:18:38;;;;;;;15.15;6.95;;;;;;;6.05;84.75;101784.63;3576686;40;20049;-63
2022/12/06 08:21:05;;;;;;;9.40;6.50;;;;;;;6.07;84.76;101788.16;3569349;40;20060;-63
2022/12/06 08:23:31;;;;;;;11.63;6.93;;;;;;;6.10;84.61;101792.53;3576322;40;20094;-63
2022/12/06 08:26:04;;;;;;;9.23;6.50;;;;;;;6.11;84.93;101795.16;3569158;40;20280;-63
2022/12/06 08:28:32;;;;;;;10.77;6.10;;;;;;;6.03;84.21;101776.69;3565867;40;20098;-63
2022/12/06 08:30:58;;;;;;;10.48;6.50;;;;;;;6.19;84.22;101785.13;3578441;40;20052;-63
2022/12/06 08:33:24;;;;;;;10.50;6.75;;;;;;;6.21;84.12;101798.44;3561088;40;20070;-63
2022/12/06 08:35:51;;;;;;;8.93;5.78;;;;;;;6.22;84.14;101785.06;3575975;40;20110;-63
2022/12/06 08:38:17;;;;;;;7.75;6.40;;;;;;;6.25;83.99;101795.66;3578682;40;20110;-63
2022/12/06 08:40:44;;;;;;;9.75;5.97;;;;;;;6.28;84.31;101790.22;3575426;40;20064;-63
2022/12/06 08:43:09;;;;;;;11.95;6.78;;;;;;;6.28;83.45;101794.69;3577404;40;20064;-63
2022/12/06 08:45:35;;;;;;;11.38;6.13;;;;;;;6.27;83.74;101803.59;3577434;40;20063;-63
2022/12/06 08:48:02;;;;;;;8.38;5.57;;;;;;;6.25;83.37;101795.66;3579688;40;20056;-63
2022/12/06 08:50:27;;;;;;;10.20;6.22;;;;;;;6.25;83.75;101798.31;3575549;40;20328;-63
2022/12/06 08:52:53;;;;;;;8.38;5.50;;;;;;;6.19;83.24;101795.81;3577583;40;20402;-63
2022/12/06 08:55:19;;;;;;;12.13;5.90;;;;;;;6.17;82.84;101794.09;3578733;40;20059;-63
2022/12/06 08:57:44;;;;;;;10.48;6.00;;;;;;;6.10;82.84;101801.41;3575475;40;20071;-63
2022/12/06 09:00:11;;;;;;;10.80;5.57;;;;;;;5.97;82.37;101784.84;3577655;40;20265;-63
2022/12/06 09:02:40;;;;;;;9.82;6.10;;;;;;;5.97;82.66;101805.34;3575628;40;20057;-63
2022/12/06 09:05:07;;;;;;;8.77;5.70;;;;;;;5.91;82.86;101810.81;3578631;40;20055;-63
2022/12/06 09:07:33;;;;;;;9.02;5.70;;;;;;;5.86;83.56;101802.91;3577678;40;20397;-63
2022/12/06 09:09:58;;;;;;;10.05;5.40;;;;;;;5.82;82.97;101815.44;3578049;40;20064;-63
2022/12/06 09:12:24;;;;;;;11.57;5.97;;;;;;;5.79;83.36;101810.19;3577414;40;20085;-63
2022/12/06 09:14:50;;;;;;;12.43;6.20;;;;;;;5.78;83.35;101812.91;3577382;40;20059;-63
2022/12/06 09:17:16;;;;;;;10.43;6.13;;;;;;;5.78;83.92;101816.47;3578030;40;20071;-63
2022/12/06 09:19:42;;;;;;;12.25;5.72;;;;;;;5.81;83.95;101819.03;3576254;40;20160;-63
2022/12/06 09:22:07;;;;;;;9.68;5.97;;;;;;;5.86;84.32;101813.56;3575785;40;20060;-63
2022/12/06 09:24:33;;;;;;;9.63;6.03;;;;;;;5.87;84.47;101817.13;3578548;40;20504;-62
2022/12/06 09:26:59;;;;;;;10.50;6.13;;;;;;;5.94;84.69;101810.75;3578668;40;20167;-62
2022/12/06 09:29:24;;;;;;;11.75;6.40;;;;;;;5.91;84.71;101794.78;3575750;40;20048;-63
2022/12/06 09:31:50;;;;;;;11.35;6.30;;;;;;;6.00;84.55;101815.94;3575948;40;20359;-63
2022/12/06 09:34:16;;;;;;;10.73;5.93;;;;;;;6.02;83.59;101814.94;3574344;40;20075;-63
2022/12/06 09:37:10;;;;;;;8.52;6.10;;;;;;;6.05;84.06;101819.34;3577330;40;20449;-63
2022/12/06 09:39:46;;;;;;;9.50;6.35;;;;;;;6.11;84.05;101815.63;3575713;40;20082;-64
2022/12/06 09:42:31;;;;;;;8.85;5.57;;;;;;;6.17;83.72;101815.47;3576821;40;20048;-63
2022/12/06 09:45:19;;;;;;;9.75;6.15;;;;;;;6.29;83.70;101812.44;3575566;40;20052;-63
2022/12/06 09:48:26;;;;;;;7.55;5.85;;;;;;;6.40;83.42;101814.81;3577632;40;20060;-63
2022/12/06 09:50:54;;;;;;;8.05;5.40;;;;;;;6.59;83.67;101820.50;3573882;40;20087;-63
2022/12/06 09:53:33;;;;;;;8.18;4.82;;;;;;;6.74;82.71;101815.56;3575544;40;20054;-63
2022/12/06 09:56:33;;;;;;;9.60;5.22;;;;;;;6.94;81.60;101824.78;3575332;40;20298;-63
2022/12/06 09:59:30;;;;;;;8.73;5.53;;;;;;;7.13;80.31;101823.28;3578365;40;20057;-64
2022/12/06 10:02:43;;;;;;;7.68;4.55;;;;;;;7.22;79.20;101822.13;3579955;40;20147;-63
2022/12/06 10:05:39;;;;;;;7.22;4.47;;;;;;;7.45;78.08;101824.03;3578405;40;20370;-64
2022/12/06 10:08:23;;;;;;;6.97;4.30;;;;;;;7.70;77.57;101816.06;3579568;40;20048;-63
2022/12/06 10:11:07;;;;;;;;;;;;;;;7.93;76.90;101820.66;3574437;40;20149;-63
2022/12/06 10:14:02;;;;;;;8.27;4.53;;;;;;;8.26;75.34;101809.66;3575712;40;19933;-63
2022/12/06 10:17:14;;;;;;;5.55;4.22;;;;;;;8.54;74.70;101790.81;3573961;40;20060;-63
2022/12/06 10:20:12;;;;;;;6.38;4.50;;;;;;;8.90;72.72;101804.56;3576549;40;21364;-63
2022/12/06 10:23:10;;;;;;;5.20;3.78;;;;;;;9.09;72.79;101806.53;3577757;40;20410;-63
2022/12/06 10:26:05;;;;;;;6.28;4.13;;;;;;;9.19;69.90;101802.53;3575695;40;20048;-64
2022/12/06 10:29:05;;;;;;;5.63;3.90;;;;;;;9.27;70.06;101804.00;3574476;40;20060;-63
2022/12/06 10:31:39;;;;;;;5.47;3.90;;;;;;;9.54;70.46;101796.59;3577972;40;20050;-63
2022/12/06 10:34:21;;;;;;;5.43;3.38;;;;;;;9.73;67.46;101796.69;3575754;40;20052;-62
2022/12/06 10:37:23;;;;;;;6.00;3.30;;;;;;;9.71;66.99;101797.72;3575912;40;20378;-63
2022/12/06 10:40:17;;;;;;;6.45;3.40;;;;;;;9.85;68.12;101802.47;3577936;40;20125;-63
2022/12/06 10:42:57;;;;;;;5.90;4.07;;;;;;;10.05;66.65;101799.78;3578014;40;20072;-63
2022/12/06 10:48:41;;;;;;;4.05;3.00;;;;;;;10.17;65.64;101807.31;3578051;40;20062;-63
2022/12/06 10:51:20;;;;;;;4.93;3.00;;;;;;;10.17;65.14;101807.31;3576032;40;20134;-63
2022/12/06 10:54:00;;;;;;;5.05;3.22;;;;;;;10.21;65.07;101806.25;3576957;40;20306;-63
2022/12/06 10:56:38;;;;;;;6.75;3.10;;;;;;;10.12;65.27;101808.47;3576339;40;20342;-63
2022/12/06 10:59:31;;;;;;;4.90;3.00;;;;;;;9.94;64.98;101810.16;3578535;40;20055;-63
2022/12/06 11:02:33;;;;;;;4.33;3.10;;;;;;;9.81;65.27;101817.84;3577842;40;20118;-62
2022/12/06 11:05:12;;;;;;;6.03;3.50;;;;;;;9.86;65.53;101796.16;3577121;40;20065;-63
2022/12/06 11:07:45;;;;;;;5.20;2.90;;;;;;;10.04;65.19;101799.88;3565114;40;20057;-62
2022/12/06 11:10:27;;;;;;;5.45;3.00;;;;;;;10.18;64.64;101808.19;3577206;40;20049;-62
2022/12/06 11:13:18;;;;;;;4.40;2.88;;;;;;;10.42;64.54;101801.75;3576916;40;20065;-63
2022/12/06 11:15:57;;;;;;;7.68;2.55;;;;;;;10.52;63.46;101779.81;3574049;40;20074;-63
2022/12/06 11:18:29;;;;;;;5.43;3.20;;;;;;;10.95;63.85;101799.31;3576753;40;20421;-62
2022/12/06 11:21:17;;;;;;;3.80;2.42;;;;;;;11.31;61.11;101807.41;3575556;40;20085;-63
2022/12/06 11:24:14;;;;;;;4.43;2.72;;;;;;;11.56;59.88;101809.75;3576720;40;20138;-63
2022/12/06 11:27:23;;;;;;;3.92;2.30;;;;;;;11.78;58.48;101804.16;3574997;40;20060;-63
2022/12/06 11:29:50;;;;;;;6.22;2.60;;;;;;;12.05;58.13;101796.50;3573482;40;20044;-63
2022/12/06 11:32:18;;;;;;;3.47;2.17;;;;;;;12.23;57.63;101792.84;3575387;40;20072;-63
2022/12/06 11:34:52;;;;;;;3.25;2.13;;;;;;;12.19;56.11;101790.38;3567485;40;20064;-63
2022/12/06 11:37:26;;;;;;;4.57;2.45;;;;;;;11.83;56.79;101797.59;3575950;40;20131;-63
2022/12/06 11:40:19;;;;;;;6.60;2.80;;;;;;;12.00;58.98;101791.34;3576815;40;20387;-63
2022/12/06 11:42:45;;;;;;;5.82;2.40;;;;;;;12.21;55.92;101792.06;3577862;40;20068;-63
2022/12/06 11:45:33;;;;;;;4.05;2.30;;;;;;;12.21;57.20;101789.38;3577804;40;20407;-63
2022/12/06 11:48:13;;;;;;;5.70;2.47;;;;;;;12.24;56.51;101781.13;3578531;40;20280;-64
2022/12/06 11:50:42;;;;;;;4.68;2.58;;;;;;;12.24;56.71;101772.13;3578129;40;20144;-64
2022/12/06 11:53:54;;;;;;;6.30;2.53;;;;;;;12.13;55.83;101770.03;3575435;40;20153;-63
2022/12/06 11:56:32;;;;;;;4.03;2.30;;;;;;;11.99;56.38;101767.19;3567329;40;20053;-63
2022/12/06 11:59:25;;;;;;;3.70;2.30;;;;;;;11.78;56.17;101764.63;3576972;40;20389;-62
2022/12/06 12:01:56;;;;;;;2.83;1.95;;;;;;;11.50;56.67;101767.84;3583214;40;20056;-62
2022/12/06 12:04:43;;;;;;;4.88;2.15;;;;;;;10.99;56.89;101747.09;3577477;40;20102;-62
2022/12/06 12:07:09;;;;;;;5.22;2.47;;;;;;;10.91;57.36;101759.13;3579307;40;20057;-62
2022/12/06 12:09:59;;;;;;;4.47;2.60;;;;;;;10.92;57.91;101758.16;3578777;40;20315;-62
2022/12/06 12:15:28;;;;;;;6.03;2.55;;;;;;;10.90;57.73;101749.28;3573685;40;20153;-63
2022/12/06 12:17:58;;;;;;;2.40;2.03;;;;;;;10.99;57.69;101744.41;3573638;40;20388;-63
2022/12/06 12:20:36;;;;;;;4.55;2.20;;;;;;;11.37;56.89;101748.75;3575623;40;20052;-62
2022/12/06 12:23:33;;;;;;;7.22;3.75;;;;;;;11.70;55.98;101744.41;3576101;40;20056;-62
2022/12/06 12:26:04;;;;;;;4.95;2.58;;;;;;;11.86;54.06;101742.69;3575875;40;20056;-63
2022/12/06 12:28:33;;;;;;;2.72;2.22;;;;;;;12.07;54.21;101744.25;3577748;40;20064;-63
2022/12/06 12:31:27;;;;;;;5.20;2.30;;;;;;;12.41;52.41;101736.19;3574900;40;20322;-63